Portada
METAR-TAF:

METAR-TAF

Aeropuertos :

Sioux Gateway Airport (Col. Bud Day Field)

Sioux City, Iowa, Estados Unidos

latitud: 42-24-09N, longitud: 096-23-04W, altitud: 335 m

Observación

El informe se hizo hace 34 minutos, a las 00:52 UTC
Viento 6 kt del noroeste
Temperatura 9°C
Humedad 49%
Presión 1019 hPa
Visibilidad: 16.1 km
Cielo despejado

METAR: KSUX 300052Z 32006KT 10SM CLR 09/M01 A3009 RMK AO2 SLP197 T00891006

Hora: 20:26 (01:26 UTC)

Pronóstico

El informe se hizo hace 2 horas y 6 minutos, a las 23:20 UTC
Pronóstico válido del 30 a las 00 UTC al 30 a las 24 UTC
Viento 5 kt con dirección variable
Visibilidad: 10 km
Cielo despejado
A partir de las 30 a las 1500 UTC
Viento 7 kt del este-sureste
Visibilidad: 10 km
Cielo despejado

TAF: KSUX 292320Z 3000/3024 VRB05KT P6SM SKC FM301500 12007KT P6SM SKC

Observaciones y pronósticos meteorológicos de más de 4000 aeropuertos (mensajes METAR y TAF).

Los puntos amarillos y rojos representan las estaciones disponibles.

Ponga el ratón en el punto deseado para ver el nombre de la estación.

Haga clic para ver las observaciones y los pronósticos meteorológicos.

Para cambiar el mapa : haga clic en los botones verdes con una cruz de color negro para hacer un zoom, en el botón verde con un guión para alejar o en las flechas verdes para mapas adyacentes.


METAR-TAF: